createdAt,value
2022-12-18T00:03:27.231Z,15.82
2022-12-18T00:08:29.754Z,16.73
2022-12-18T00:13:32.256Z,17.70
2022-12-18T00:18:34.617Z,16.08
2022-12-18T00:23:38.257Z,16.35
2022-12-18T00:28:41.118Z,18.35
2022-12-18T00:33:43.730Z,16.80
2022-12-18T00:38:46.609Z,17.45
2022-12-18T00:43:48.850Z,17.95
2022-12-18T00:48:51.152Z,19.92
2022-12-18T00:53:53.793Z,18.50
2022-12-18T00:58:56.137Z,17.40
2022-12-18T01:03:58.980Z,16.95
2022-12-18T01:09:01.545Z,18.52
2022-12-18T01:14:03.933Z,18.65
2022-12-18T01:19:06.222Z,19.08
2022-12-18T01:24:08.943Z,17.25
2022-12-18T01:29:11.145Z,16.77
2022-12-18T01:34:13.359Z,16.58
2022-12-18T01:39:16.420Z,17.42
2022-12-18T01:44:56.693Z,18.15
2022-12-18T01:50:01.488Z,18.87
2022-12-18T01:55:06.407Z,18.75
2022-12-18T02:00:15.738Z,17.67
2022-12-18T02:05:36.218Z,18.10
2022-12-18T02:11:08.147Z,17.83
2022-12-18T02:16:29.337Z,18.88
2022-12-18T02:21:51.459Z,16.55
2022-12-18T02:27:03.121Z,16.05
2022-12-18T02:32:10.828Z,16.33
2022-12-18T02:37:16.420Z,16.90
2022-12-18T02:42:20.183Z,16.38
2022-12-18T02:47:25.656Z,16.50
2022-12-18T02:52:30.356Z,15.52
2022-12-18T02:57:46.207Z,14.80
2022-12-18T03:02:57.351Z,14.40
2022-12-18T03:08:05.505Z,13.00
2022-12-18T03:13:13.585Z,13.30
2022-12-18T03:18:26.875Z,13.57
2022-12-18T03:23:33.944Z,12.85
2022-12-18T03:28:41.315Z,12.80
2022-12-18T03:33:54.965Z,12.65
2022-12-18T03:38:59.384Z,12.30
2022-12-18T03:44:10.355Z,12.45
2022-12-18T03:49:31.300Z,11.88
2022-12-18T03:54:34.561Z,11.82
2022-12-18T03:59:39.125Z,12.45
2022-12-18T04:04:43.850Z,11.60
2022-12-18T04:09:47.755Z,12.02
2022-12-18T04:14:50.072Z,11.20
2022-12-18T04:19:52.357Z,10.68
2022-12-18T04:24:54.562Z,11.23
2022-12-18T04:29:56.829Z,10.90
2022-12-18T04:34:59.244Z,11.07
2022-12-18T04:40:01.426Z,10.48
2022-12-18T04:45:03.960Z,11.80
2022-12-18T04:50:06.785Z,11.55
2022-12-18T04:55:09.443Z,10.55
2022-12-18T05:00:12.310Z,11.63
2022-12-18T05:05:14.546Z,11.82
2022-12-18T05:10:16.995Z,12.15
2022-12-18T05:15:19.300Z,12.95
2022-12-18T05:20:21.602Z,13.77
2022-12-18T05:25:25.098Z,12.00
2022-12-18T05:30:27.405Z,13.13
2022-12-18T05:35:29.672Z,12.55
2022-12-18T05:40:32.074Z,13.10
2022-12-18T05:45:39.601Z,13.00
2022-12-18T05:50:43.947Z,12.98
2022-12-18T05:55:49.182Z,12.88
2022-12-18T06:00:51.374Z,12.52
2022-12-18T06:05:53.637Z,13.38
2022-12-18T06:10:55.999Z,14.30
2022-12-18T06:15:58.324Z,15.85
2022-12-18T06:21:01.768Z,15.73
2022-12-18T06:26:10.132Z,15.93
2022-12-18T06:31:13.440Z,16.98
2022-12-18T06:36:15.812Z,15.60
2022-12-18T06:41:21.253Z,16.08
2022-12-18T06:51:44.192Z,16.70
2022-12-18T06:56:49.369Z,16.70
2022-12-18T07:01:51.918Z,19.67
2022-12-18T07:06:54.234Z,18.52
2022-12-18T07:11:56.705Z,20.75
2022-12-18T07:17:00.260Z,18.65
2022-12-18T07:22:02.686Z,17.52
2022-12-18T07:27:05.263Z,20.73
2022-12-18T07:32:10.273Z,15.98
2022-12-18T07:37:12.822Z,19.08
2022-12-18T07:42:33.336Z,38.38
2022-12-18T07:47:39.382Z,15.48
2022-12-18T07:52:41.599Z,18.13
2022-12-18T07:57:53.414Z,16.20
2022-12-18T08:02:59.206Z,18.60
2022-12-18T08:08:01.548Z,14.98
2022-12-18T08:13:05.259Z,13.73
2022-12-18T08:18:12.686Z,14.02
2022-12-18T08:23:16.222Z,15.27
2022-12-18T08:28:18.800Z,14.73
2022-12-18T08:33:21.136Z,14.70
2022-12-18T08:38:24.351Z,12.82
2022-12-18T08:43:44.960Z,16.27
2022-12-18T08:48:48.031Z,12.25
2022-12-18T08:53:50.280Z,14.48
2022-12-18T08:58:56.396Z,13.88
2022-12-18T09:03:58.832Z,13.13
2022-12-18T09:09:01.303Z,12.25
2022-12-18T09:14:04.151Z,12.82
2022-12-18T09:19:08.164Z,13.13
2022-12-18T09:24:15.001Z,13.27
2022-12-18T09:29:18.841Z,11.88
2022-12-18T09:34:23.325Z,12.20
2022-12-18T09:39:25.690Z,14.20
2022-12-18T09:44:32.942Z,13.27
2022-12-18T09:49:42.989Z,12.40
2022-12-18T10:00:26.440Z,12.80
2022-12-18T10:05:53.877Z,13.38
2022-12-18T10:11:05.054Z,13.77
2022-12-18T10:16:19.224Z,13.82
2022-12-18T10:21:32.000Z,14.30
2022-12-18T10:26:34.993Z,14.77
2022-12-18T10:31:37.737Z,14.98
2022-12-18T10:36:40.714Z,16.15
2022-12-18T10:41:43.067Z,15.63
2022-12-18T10:46:50.874Z,16.65
2022-12-18T10:52:05.937Z,17.92
2022-12-18T10:57:18.288Z,18.73
2022-12-18T11:02:39.359Z,16.58
2022-12-18T11:07:51.752Z,18.48
2022-12-18T11:12:54.203Z,16.27
2022-12-18T11:17:56.688Z,17.88
2022-12-18T11:23:05.419Z,18.00
2022-12-18T11:28:42.783Z,17.98
2022-12-18T11:34:27.355Z,17.85
2022-12-18T11:39:42.201Z,13.85
2022-12-18T11:45:12.703Z,13.00
2022-12-18T11:50:32.086Z,15.30
2022-12-18T11:56:04.974Z,13.87
2022-12-18T12:01:30.159Z,14.07
2022-12-18T12:06:44.266Z,15.82
2022-12-18T12:11:52.447Z,16.00
2022-12-18T12:17:12.839Z,16.90
2022-12-18T12:22:20.973Z,21.55
2022-12-18T12:28:07.487Z,18.35
2022-12-18T12:38:52.515Z,19.38
2022-12-18T12:44:00.323Z,18.63
2022-12-18T12:49:12.969Z,19.30
2022-12-18T12:54:23.500Z,17.60
2022-12-18T12:59:36.552Z,18.30
2022-12-18T13:04:54.810Z,18.25
2022-12-18T13:10:21.233Z,17.70
2022-12-18T13:15:36.812Z,14.82
2022-12-18T13:20:52.289Z,12.68
2022-12-18T13:26:11.800Z,14.48
2022-12-18T13:31:42.224Z,13.60
2022-12-18T13:36:45.281Z,12.02
2022-12-18T13:42:35.979Z,12.07
2022-12-18T13:47:39.690Z,12.00
2022-12-18T13:52:41.940Z,12.75
2022-12-18T13:57:44.221Z,10.68
2022-12-18T14:02:48.015Z,11.30
2022-12-18T14:13:12.974Z,12.80
2022-12-18T14:18:29.943Z,12.32
2022-12-18T14:23:36.450Z,13.57
2022-12-18T14:28:46.168Z,13.88
2022-12-18T14:33:48.844Z,21.10
2022-12-18T14:38:53.360Z,16.17
2022-12-18T14:43:56.998Z,15.52
2022-12-18T14:49:00.122Z,14.00
2022-12-18T14:54:09.629Z,14.00
2022-12-18T14:59:24.004Z,13.68
2022-12-18T15:04:32.312Z,11.18
2022-12-18T15:09:34.958Z,10.60
2022-12-18T15:14:37.584Z,11.02
2022-12-18T15:19:43.009Z,10.95
2022-12-18T15:24:45.457Z,12.95
2022-12-18T15:30:21.507Z,12.77
2022-12-18T15:35:26.048Z,12.00
2022-12-18T15:40:28.587Z,11.63
2022-12-18T15:45:31.163Z,12.02
2022-12-18T15:50:33.597Z,12.20
2022-12-18T15:56:00.724Z,10.95
2022-12-18T16:01:03.800Z,9.50
2022-12-18T16:06:06.613Z,7.70
2022-12-18T16:11:39.272Z,8.70
2022-12-18T16:16:41.580Z,8.57
2022-12-18T16:21:46.934Z,9.48
2022-12-18T16:26:50.394Z,10.70
2022-12-18T16:31:53.530Z,10.52
2022-12-18T16:37:01.674Z,8.75
2022-12-18T16:42:27.572Z,9.27
2022-12-18T16:52:52.585Z,13.77
2022-12-18T17:03:14.617Z,8.50
2022-12-18T17:08:16.963Z,8.25
2022-12-18T17:13:25.446Z,10.82
2022-12-18T17:18:28.690Z,12.50
2022-12-18T17:23:31.091Z,9.50
2022-12-18T17:28:34.381Z,11.82
2022-12-18T17:33:36.789Z,12.30
2022-12-18T17:38:39.148Z,12.40
2022-12-18T17:43:46.248Z,11.10
2022-12-18T17:48:49.120Z,12.18
2022-12-18T17:53:52.057Z,15.35
2022-12-18T17:58:54.640Z,19.63
2022-12-18T18:03:57.272Z,15.75
2022-12-18T18:08:59.613Z,17.70
2022-12-18T18:14:03.103Z,17.55
2022-12-18T18:19:08.689Z,19.25
2022-12-18T18:24:13.223Z,22.20
2022-12-18T18:29:18.489Z,17.90
2022-12-18T18:34:29.265Z,16.70
2022-12-18T18:39:31.647Z,16.90
2022-12-18T18:44:33.924Z,14.52
2022-12-18T18:55:12.934Z,15.65
2022-12-18T19:00:16.854Z,19.00
2022-12-18T19:05:19.341Z,24.77
2022-12-18T19:10:21.614Z,19.35
2022-12-18T19:15:24.402Z,17.80
2022-12-18T19:20:28.219Z,14.85
2022-12-18T19:25:40.303Z,12.90
2022-12-18T19:36:16.571Z,15.70
2022-12-18T19:41:20.569Z,13.38
2022-12-18T19:46:24.105Z,13.60
2022-12-18T19:51:28.632Z,17.23
2022-12-18T19:56:33.706Z,24.70
2022-12-18T20:01:38.494Z,27.60
2022-12-18T20:06:52.495Z,26.00
2022-12-18T20:11:55.023Z,19.65
2022-12-18T20:16:58.246Z,18.77
2022-12-18T20:22:02.761Z,19.27
2022-12-18T20:27:06.901Z,25.15
2022-12-18T20:32:12.173Z,23.08
2022-12-18T20:37:17.328Z,24.95
2022-12-18T20:42:21.571Z,27.00
2022-12-18T20:47:23.907Z,23.13
2022-12-18T20:52:26.344Z,21.75
2022-12-18T20:57:28.768Z,24.35
2022-12-18T21:02:31.202Z,23.05
2022-12-18T21:07:33.706Z,23.73
2022-12-18T21:12:40.354Z,22.98
2022-12-18T21:17:46.963Z,21.33
2022-12-18T21:22:49.876Z,19.95
2022-12-18T21:27:52.213Z,17.52
2022-12-18T21:32:54.565Z,14.38
2022-12-18T21:37:56.902Z,14.48
2022-12-18T21:43:17.973Z,14.50
2022-12-18T21:48:20.192Z,9.88
2022-12-18T21:53:22.441Z,6.65
2022-12-18T21:58:24.856Z,4.97
2022-12-18T22:03:27.301Z,6.32
2022-12-18T22:08:29.712Z,7.05
2022-12-18T22:13:32.002Z,4.82
2022-12-18T22:18:34.307Z,4.65
2022-12-18T22:23:36.642Z,5.43
2022-12-18T22:28:57.984Z,5.22
2022-12-18T22:34:00.726Z,4.70
2022-12-18T22:39:03.375Z,5.07
2022-12-18T22:44:05.732Z,4.07
2022-12-18T22:49:15.123Z,5.00
2022-12-18T22:54:17.519Z,4.18
2022-12-18T23:04:42.235Z,3.92
2022-12-18T23:09:45.589Z,4.18
2022-12-18T23:14:50.132Z,3.65
2022-12-18T23:19:52.447Z,4.22
2022-12-18T23:24:54.915Z,3.95
2022-12-18T23:29:57.223Z,4.30
2022-12-18T23:35:01.043Z,6.15
2022-12-18T23:40:04.079Z,4.85
2022-12-18T23:45:17.559Z,4.07
2022-12-18T23:50:23.764Z,4.40
